Time;durP1;ratioP1;P1;durP2;ratioP2;P2;SDS_P1;SDS_P2;PMS_P1;PMS_P2;Temp;Humidity;BMP_temperature;BMP_pressure;BME280_temperature;BME280_humidity;BME280_pressure;Samples;Min_cycle;Max_cycle;Signal;HPM_P1;HPM_P2
2022/05/22 00:03:12;;;;;;;3.05;2.40;;;;;;;;;;12545201;28;20044;-80
2022/05/22 00:09:14;;;;;;;3.47;2.97;;;;;;;;;;12526603;28;20040;-80
2022/05/22 00:15:17;;;;;;;2.83;2.63;;;;;;;;;;12526255;28;20467;-79
2022/05/22 00:21:18;;;;;;;3.25;2.95;;;;;;;;;;12526064;28;20520;-80
2022/05/22 00:27:20;;;;;;;;;;;;;;;;;;12544381;28;20039;-79
2022/05/22 00:33:22;;;;;;;3.07;2.87;;;;;;;;;;12543641;28;20382;-80
2022/05/22 00:39:24;;;;;;;;;;;;;;;;;;12545147;28;20136;-79
2022/05/22 00:45:25;;;;;;;3.47;3.17;;;;;;;;;;12552989;28;19916;-79
2022/05/22 00:51:43;;;;;;;3.15;2.78;;;;;;;;;;12519136;28;20039;-79
2022/05/22 00:57:52;;;;;;;3.15;2.63;;;;;;;;;;12552939;28;20037;-80
2022/05/22 01:03:55;;;;;;;3.00;2.80;;;;;;;;;;12534718;28;20379;-79
2022/05/22 01:09:57;;;;;;;3.42;3.20;;;;;;;;;;12534056;28;20041;-79
2022/05/22 01:16:01;;;;;;;3.08;2.88;;;;;;;;;;12534223;28;20033;-79
2022/05/22 01:22:05;;;;;;;3.22;2.92;;;;;;;;;;12550938;28;20051;-79
2022/05/22 01:28:10;;;;;;;3.40;3.10;;;;;;;;;;12533687;28;20040;-79
2022/05/22 01:34:11;;;;;;;3.30;3.00;;;;;;;;;;12532798;28;20045;-79
2022/05/22 01:40:13;;;;;;;;;;;;;;;;;;12516597;28;20049;-79
2022/05/22 01:46:15;;;;;;;3.20;2.90;;;;;;;;;;12532161;28;19909;-79
2022/05/22 01:52:26;;;;;;;3.00;2.80;;;;;;;;;;12530943;28;20029;-79
2022/05/22 01:58:28;;;;;;;3.50;3.20;;;;;;;;;;12532193;28;20045;-79
2022/05/22 02:04:31;;;;;;;3.75;3.33;;;;;;;;;;12532288;28;20040;-79
2022/05/22 02:10:33;;;;;;;3.47;3.17;;;;;;;;;;12549254;28;20111;-79
2022/05/22 02:16:35;;;;;;;3.33;2.80;;;;;;;;;;12514667;28;20033;-79
2022/05/22 02:22:44;;;;;;;3.28;2.80;;;;;;;;;;12530910;28;20502;-79
2022/05/22 02:28:46;;;;;;;3.13;2.75;;;;;;;;;;12530599;28;20509;-79
2022/05/22 02:34:50;;;;;;;3.00;2.75;;;;;;;;;;12514314;28;20053;-79
2022/05/22 02:40:52;;;;;;;3.25;3.05;;;;;;;;;;12513493;28;20068;-79
2022/05/22 02:46:54;;;;;;;4.25;3.40;;;;;;;;;;12529503;28;20036;-79
2022/05/22 02:52:56;;;;;;;;;;;;;;;;;;12530451;28;20489;-79
2022/05/22 02:59:01;;;;;;;3.33;2.85;;;;;;;;;;12513169;28;19917;-79
2022/05/22 03:05:09;;;;;;;3.55;3.25;;;;;;;;;;12529031;28;20037;-79
2022/05/22 03:11:11;;;;;;;2.10;2.00;;;;;;;;;;12512134;28;20044;-79
2022/05/22 03:17:14;;;;;;;2.72;2.53;;;;;;;;;;12528505;28;20044;-79
2022/05/22 03:23:42;;;;;;;3.58;3.17;;;;;;;;;;12529081;28;20053;-79
2022/05/22 03:29:46;;;;;;;3.30;3.00;;;;;;;;;;12545405;28;20037;-79
2022/05/22 03:35:48;;;;;;;3.67;3.38;;;;;;;;;;12527710;28;20060;-79
2022/05/22 03:41:50;;;;;;;4.82;4.10;;;;;;;;;;12527097;28;20045;-79
2022/05/22 03:47:55;;;;;;;2.75;2.55;;;;;;;;;;12527061;28;20053;-79
2022/05/22 03:54:00;;;;;;;3.45;3.15;;;;;;;;;;12526880;28;20036;-79
2022/05/22 04:00:08;;;;;;;4.38;3.47;;;;;;;;;;12526431;28;20045;-80
2022/05/22 04:06:37;;;;;;;4.03;3.63;;;;;;;;;;12543513;28;20041;-79
2022/05/22 04:12:40;;;;;;;3.65;3.35;;;;;;;;;;12525964;28;20040;-79
2022/05/22 04:18:43;;;;;;;3.38;3.15;;;;;;;;;;12535839;28;20041;-79
2022/05/22 04:31:07;;;;;;;3.05;2.85;;;;;;;;;;12536141;28;20056;-79
2022/05/22 04:37:17;;;;;;;4.30;3.67;;;;;;;;;;12519906;28;20375;-79
2022/05/22 04:43:22;;;;;;;1.95;1.80;;;;;;;;;;12534741;28;20265;-79
2022/05/22 04:49:23;;;;;;;;;;;;;;;;;;12553411;28;20041;-79
2022/05/22 04:55:26;;;;;;;3.63;3.33;;;;;;;;;;12552281;28;19908;-79
2022/05/22 05:01:28;;;;;;;4.07;3.67;;;;;;;;;;12534670;28;20041;-80
2022/05/22 05:07:41;;;;;;;5.70;3.90;;;;;;;;;;12552176;28;20048;-80
2022/05/22 05:14:02;;;;;;;4.07;3.67;;;;;;;;;;12533489;28;20025;-80
2022/05/22 05:20:04;;;;;;;3.22;2.95;;;;;;;;;;12533195;28;20051;-80
2022/05/22 05:26:20;;;;;;;5.72;4.10;;;;;;;;;;12533267;28;20040;-80
2022/05/22 05:32:23;;;;;;;3.70;3.28;;;;;;;;;;12533114;28;20064;-80
2022/05/22 05:38:26;;;;;;;4.07;3.78;;;;;;;;;;12532194;28;20390;-79
2022/05/22 05:44:30;;;;;;;2.28;2.13;;;;;;;;;;12532162;28;20044;-79
2022/05/22 05:50:55;;;;;;;3.88;3.53;;;;;;;;;;12541236;28;20049;-80
2022/05/22 05:57:26;;;;;;;4.00;3.60;;;;;;;;;;12538024;28;20037;-80
2022/05/22 06:03:31;;;;;;;3.90;3.47;;;;;;;;;;12532509;28;20047;-80
2022/05/22 06:09:34;;;;;;;3.08;2.80;;;;;;;;;;12531126;28;20041;-80
2022/05/22 06:15:55;;;;;;;5.05;4.50;;;;;;;;;;12548475;28;20082;-80
2022/05/22 06:21:57;;;;;;;4.68;4.22;;;;;;;;;;12515702;28;20045;-80
2022/05/22 06:28:00;;;;;;;4.78;4.38;;;;;;;;;;12530250;28;20398;-80
2022/05/22 06:34:24;;;;;;;4.38;3.70;;;;;;;;;;12532819;28;20060;-80
2022/05/22 06:40:45;;;;;;;3.92;3.55;;;;;;;;;;12529595;28;20049;-80
2022/05/22 06:47:15;;;;;;;2.83;2.63;;;;;;;;;;12529262;28;20037;-80
2022/05/22 06:53:37;;;;;;;3.90;3.58;;;;;;;;;;12546455;28;20514;-80
2022/05/22 07:00:03;;;;;;;4.65;3.90;;;;;;;;;;12532532;28;20053;-80
2022/05/22 07:06:20;;;;;;;4.05;3.60;;;;;;;;;;12546962;28;20036;-79
2022/05/22 07:12:44;;;;;;;4.00;3.70;;;;;;;;;;12528354;28;20040;-80
2022/05/22 07:19:12;;;;;;;2.70;2.50;;;;;;;;;;12542466;28;20049;-80
2022/05/22 07:25:26;;;;;;;2.33;2.13;;;;;;;;;;12527466;28;20041;-80
2022/05/22 07:31:40;;;;;;;2.95;2.42;;;;;;;;;;12527424;28;20410;-79
2022/05/22 07:38:01;;;;;;;2.78;2.55;;;;;;;;;;12529859;28;20033;-80
2022/05/22 07:44:32;;;;;;;4.33;2.67;;;;;;;;;;12531257;28;20045;-79
2022/05/22 07:50:45;;;;;;;4.75;2.85;;;;;;;;;;12525786;28;20052;-79
2022/05/22 07:57:12;;;;;;;2.17;2.00;;;;;;;;;;12526445;28;20032;-80
2022/05/22 08:03:29;;;;;;;3.53;2.45;;;;;;;;;;12527050;28;20052;-80
2022/05/22 08:09:33;;;;;;;2.83;2.53;;;;;;;;;;12526414;28;20040;-79
2022/05/22 08:15:36;;;;;;;3.05;2.72;;;;;;;;;;12543745;28;20033;-79
2022/05/22 08:21:51;;;;;;;4.82;3.20;;;;;;;;;;12525828;28;20041;-79
2022/05/22 08:27:53;;;;;;;3.30;2.92;;;;;;;;;;12525866;28;20029;-79
2022/05/22 08:33:55;;;;;;;3.08;2.72;;;;;;;;;;12525673;28;20060;-79
2022/05/22 08:39:57;;;;;;;3.13;2.90;;;;;;;;;;12543078;28;20056;-79
2022/05/22 08:46:12;;;;;;;2.50;2.30;;;;;;;;;;12543040;28;20029;-79
2022/05/22 08:52:25;;;;;;;2.90;2.70;;;;;;;;;;12542815;28;20033;-79
2022/05/22 09:05:02;;;;;;;4.57;3.53;;;;;;;;;;12534222;28;20045;-79
2022/05/22 09:11:22;;;;;;;2.92;2.50;;;;;;;;;;12533564;28;20041;-79
2022/05/22 09:17:28;;;;;;;3.78;3.17;;;;;;;;;;12533720;28;20400;-79
2022/05/22 09:23:45;;;;;;;6.10;5.47;;;;;;;;;;12533072;28;20041;-80
2022/05/22 09:30:01;;;;;;;3.05;2.85;;;;;;;;;;12532940;28;20036;-80
2022/05/22 09:36:26;;;;;;;3.45;3.15;;;;;;;;;;12532994;28;20060;-79
2022/05/22 09:42:34;;;;;;;7.78;7.15;;;;;;;;;;12516012;28;20064;-79
2022/05/22 09:48:50;;;;;;;3.00;2.80;;;;;;;;;;12532236;28;20351;-79
2022/05/22 09:54:55;;;;;;;5.38;3.15;;;;;;;;;;12549670;28;20033;-79
2022/05/22 10:01:15;;;;;;;3.30;3.10;;;;;;;;;;12531353;28;20049;-79
2022/05/22 10:07:37;;;;;;;3.75;3.40;;;;;;;;;;12514951;28;20402;-79
2022/05/22 10:13:48;;;;;;;5.15;3.08;;;;;;;;;;12548593;28;20032;-79
2022/05/22 10:20:07;;;;;;;2.90;2.70;;;;;;;;;;12531184;28;20044;-78
2022/05/22 10:26:16;;;;;;;3.75;3.40;;;;;;;;;;12548104;28;20536;-80
2022/05/22 10:32:38;;;;;;;6.00;5.40;;;;;;;;;;12548310;28;20056;-79
2022/05/22 10:38:52;;;;;;;3.95;3.55;;;;;;;;;;12529944;28;20056;-79
2022/05/22 10:44:59;;;;;;;3.60;2.88;;;;;;;;;;12529560;28;20040;-79
2022/05/22 10:51:04;;;;;;;3.88;3.20;;;;;;;;;;12513148;28;20037;-79
2022/05/22 10:57:14;;;;;;;5.32;4.55;;;;;;;;;;12512403;28;20043;-79
2022/05/22 11:03:15;;;;;;;3.45;3.15;;;;;;;;;;12513163;28;20048;-79
2022/05/22 11:09:23;;;;;;;5.10;3.92;;;;;;;;;;12546067;28;20103;-79
2022/05/22 11:15:29;;;;;;;4.75;2.95;;;;;;;;;;12528570;28;20106;-79
2022/05/22 11:21:41;;;;;;;2.67;2.30;;;;;;;;;;12511674;28;20049;-79
2022/05/22 11:27:42;;;;;;;2.45;2.20;;;;;;;;;;12545143;28;20029;-79
2022/05/22 11:33:56;;;;;;;2.13;1.92;;;;;;;;;;12545171;28;20053;-80
2022/05/22 11:40:14;;;;;;;2.28;2.03;;;;;;;;;;12527089;28;20215;-79
2022/05/22 11:46:29;;;;;;;2.10;1.98;;;;;;;;;;12527199;28;20033;-79
2022/05/22 11:52:55;;;;;;;2.38;1.67;;;;;;;;;;12527581;28;20510;-78
2022/05/22 11:59:01;;;;;;;2.45;2.25;;;;;;;;;;12526397;28;20040;-79
2022/05/22 12:05:22;;;;;;;2.90;2.60;;;;;;;;;;12510610;28;20052;-79
2022/05/22 12:11:35;;;;;;;2.80;2.38;;;;;;;;;;12509890;28;20037;-79
2022/05/22 12:17:40;;;;;;;2.15;2.05;;;;;;;;;;12543850;28;20509;-79
2022/05/22 12:23:54;;;;;;;2.50;2.30;;;;;;;;;;12526020;28;20516;-79
2022/05/22 12:30:19;;;;;;;1.77;1.67;;;;;;;;;;12525760;28;20025;-79
2022/05/22 12:36:26;;;;;;;2.50;1.90;;;;;;;;;;12529547;28;20057;-81
2022/05/22 12:42:30;;;;;;;2.15;1.63;;;;;;;;;;12535131;28;20045;-78
2022/05/22 12:48:32;;;;;;;2.65;2.45;;;;;;;;;;12552805;28;20389;-80
2022/05/22 12:54:35;;;;;;;3.05;2.47;;;;;;;;;;12518840;28;20394;-79
2022/05/22 13:00:40;;;;;;;2.00;1.90;;;;;;;;;;12552059;28;20482;-80
2022/05/22 13:07:20;;;;;;;2.05;1.73;;;;;;;;;;12518052;28;20124;-79
2022/05/22 13:13:24;;;;;;;1.57;1.47;;;;;;;;;;12382399;28;20042;-79
2022/05/22 13:19:27;;;;;;;1.67;1.58;;;;;;;;;;12514887;28;20434;-80
2022/05/22 13:25:49;;;;;;;1.83;1.73;;;;;;;;;;12533583;28;20021;-80
2022/05/22 13:31:54;;;;;;;2.25;1.85;;;;;;;;;;12533151;28;20056;-80
2022/05/22 13:37:57;;;;;;;4.10;1.80;;;;;;;;;;12550374;28;20410;-80
2022/05/22 13:43:58;;;;;;;1.90;1.52;;;;;;;;;;12532452;28;20315;-80
2022/05/22 13:56:40;;;;;;;2.80;2.60;;;;;;;;;;12531528;28;20482;-81
2022/05/22 14:02:51;;;;;;;2.15;2.00;;;;;;;;;;12532254;28;20041;-80
2022/05/22 14:08:55;;;;;;;2.72;1.75;;;;;;;;;;12531320;28;20041;-80
2022/05/22 14:14:57;;;;;;;4.20;2.03;;;;;;;;;;12548604;28;20037;-79
2022/05/22 14:21:08;;;;;;;2.10;2.00;;;;;;;;;;12530408;28;20444;-79
2022/05/22 14:27:10;;;;;;;;;;;;;;;;;;12548656;28;20029;-80
2022/05/22 14:33:16;;;;;;;1.90;1.80;;;;;;;;;;12530672;28;20394;-80
2022/05/22 14:39:17;;;;;;;2.30;2.10;;;;;;;;;;12529656;28;20056;-80
2022/05/22 14:45:19;;;;;;;1.83;1.70;;;;;;;;;;12547162;28;20028;-80
2022/05/22 14:51:30;;;;;;;2.42;2.00;;;;;;;;;;12547347;28;20414;-80
2022/05/22 14:57:36;;;;;;;2.17;1.85;;;;;;;;;;12547070;28;20037;-80
2022/05/22 15:03:46;;;;;;;2.53;1.98;;;;;;;;;;12529209;28;20470;-80
2022/05/22 15:10:07;;;;;;;2.40;2.20;;;;;;;;;;12545811;28;20037;-80
2022/05/22 15:16:16;;;;;;;1.58;1.48;;;;;;;;;;12545868;28;20048;-78
2022/05/22 15:29:12;;;;;;;1.95;1.77;;;;;;;;;;12545394;28;20033;-79
2022/05/22 15:35:21;;;;;;;3.45;2.15;;;;;;;;;;12511386;28;20060;-80
2022/05/22 15:41:26;;;;;;;2.95;2.13;;;;;;;;;;12546067;28;20048;-79
2022/05/22 15:47:30;;;;;;;2.20;2.10;;;;;;;;;;12526746;28;20040;-79
2022/05/22 15:53:33;;;;;;;2.53;2.33;;;;;;;;;;12526808;28;20040;-79
2022/05/22 15:59:35;;;;;;;2.47;2.10;;;;;;;;;;12526067;28;20041;-80
2022/05/22 16:05:37;;;;;;;2.33;1.88;;;;;;;;;;12526395;28;20029;-80
2022/05/22 16:11:40;;;;;;;2.80;2.05;;;;;;;;;;12542878;28;20041;-80
2022/05/22 16:17:45;;;;;;;2.13;1.95;;;;;;;;;;12543890;28;20040;-79
2022/05/22 16:23:48;;;;;;;1.70;1.60;;;;;;;;;;12543460;28;20036;-80
2022/05/22 16:29:49;;;;;;;1.92;1.40;;;;;;;;;;12525488;28;20060;-80
2022/05/22 16:35:52;;;;;;;2.33;1.73;;;;;;;;;;12525660;28;20049;-80
2022/05/22 16:41:54;;;;;;;1.83;1.73;;;;;;;;;;12543329;28;20056;-80
2022/05/22 16:54:17;;;;;;;;;;;;;;;;;;12543231;28;20375;-80
2022/05/22 17:00:18;;;;;;;;;;;;;;;;;;12508842;28;19917;-80
2022/05/22 17:06:22;;;;;;;2.33;1.80;;;;;;;;;;12542314;28;19912;-80
2022/05/22 17:12:23;;;;;;;2.75;2.30;;;;;;;;;;12542292;28;20033;-80
2022/05/22 17:18:25;;;;;;;2.80;2.20;;;;;;;;;;12525637;28;20429;-79
2022/05/22 17:24:29;;;;;;;2.05;1.95;;;;;;;;;;12514005;28;20041;-80
2022/05/22 17:30:31;;;;;;;2.22;2.03;;;;;;;;;;12516259;28;20394;-80
2022/05/22 17:36:33;;;;;;;2.92;2.15;;;;;;;;;;12532396;28;20060;-80
2022/05/22 17:42:36;;;;;;;3.25;2.15;;;;;;;;;;12532437;28;20056;-80
2022/05/22 17:48:37;;;;;;;2.85;2.20;;;;;;;;;;12549854;28;20025;-79
2022/05/22 17:54:40;;;;;;;2.40;2.20;;;;;;;;;;12549791;28;20037;-80
2022/05/22 18:00:42;;;;;;;2.47;2.28;;;;;;;;;;12549199;28;20040;-80
2022/05/22 18:06:44;;;;;;;2.72;2.30;;;;;;;;;;12531589;28;20041;-79
2022/05/22 18:19:06;;;;;;;2.55;2.30;;;;;;;;;;12548829;28;20060;-80
2022/05/22 18:31:32;;;;;;;2.33;2.10;;;;;;;;;;12548047;28;20076;-80
2022/05/22 18:37:34;;;;;;;2.97;2.67;;;;;;;;;;12528798;28;20041;-80
2022/05/22 18:43:36;;;;;;;2.45;2.22;;;;;;;;;;12529584;28;20532;-80
2022/05/22 18:49:38;;;;;;;5.38;4.40;;;;;;;;;;12512744;28;20037;-79
2022/05/22 18:55:40;;;;;;;2.80;2.60;;;;;;;;;;12512731;28;20037;-80
2022/05/22 19:01:43;;;;;;;2.75;2.47;;;;;;;;;;12546773;28;20037;-80
2022/05/22 19:07:45;;;;;;;2.45;2.30;;;;;;;;;;12546149;28;20040;-79
2022/05/22 19:13:48;;;;;;;2.67;2.45;;;;;;;;;;12545831;28;20357;-80
2022/05/22 19:19:50;;;;;;;2.60;2.40;;;;;;;;;;12545934;28;20036;-78
2022/05/22 19:26:00;;;;;;;2.70;2.33;;;;;;;;;;12511687;28;20389;-80
2022/05/22 19:32:02;;;;;;;4.03;3.28;;;;;;;;;;12527562;28;20045;-80
2022/05/22 19:38:05;;;;;;;2.92;2.55;;;;;;;;;;12545080;28;20025;-80
2022/05/22 19:44:08;;;;;;;2.47;2.28;;;;;;;;;;12510322;28;20041;-80
2022/05/22 19:50:10;;;;;;;2.47;2.30;;;;;;;;;;12526752;28;20029;-80
2022/05/22 20:02:32;;;;;;;2.70;2.40;;;;;;;;;;12544343;28;20048;-80
2022/05/22 20:08:34;;;;;;;;;;;;;;;;;;12544164;28;20053;-79
2022/05/22 20:14:36;;;;;;;2.65;2.10;;;;;;;;;;12543919;28;19909;-80
2022/05/22 20:20:37;;;;;;;;;;;;;;;;;;12509774;28;20037;-80
2022/05/22 20:26:39;;;;;;;2.20;1.90;;;;;;;;;;12543447;28;20388;-79
2022/05/22 20:32:45;;;;;;;3.10;2.80;;;;;;;;;;12525016;28;20287;-79
2022/05/22 20:38:46;;;;;;;2.60;2.10;;;;;;;;;;12543475;28;20040;-79
2022/05/22 20:44:50;;;;;;;3.30;3.00;;;;;;;;;;12543095;28;20379;-80
2022/05/22 20:50:52;;;;;;;3.30;3.00;;;;;;;;;;12542829;28;20048;-80
2022/05/22 20:56:58;;;;;;;2.63;2.42;;;;;;;;;;12511121;28;20036;-80
2022/05/22 21:03:00;;;;;;;2.60;2.40;;;;;;;;;;12534760;28;20045;-80
2022/05/22 21:09:03;;;;;;;2.70;2.50;;;;;;;;;;12534534;28;20048;-79
2022/05/22 21:15:05;;;;;;;4.22;2.70;;;;;;;;;;12534007;28;20079;-79
2022/05/22 21:21:07;;;;;;;5.45;3.30;;;;;;;;;;12533333;28;20045;-80
2022/05/22 21:33:33;;;;;;;5.35;4.72;;;;;;;;;;12551234;28;20059;-79
2022/05/22 21:39:35;;;;;;;5.07;4.68;;;;;;;;;;12550537;28;20036;-79
2022/05/22 21:45:37;;;;;;;;;;;;;;;;;;12550726;28;20072;-79
2022/05/22 21:51:39;;;;;;;4.50;4.10;;;;;;;;;;12550227;28;19909;-80
2022/05/22 21:57:43;;;;;;;5.95;5.38;;;;;;;;;;12550365;28;20264;-80
2022/05/22 22:03:45;;;;;;;4.38;4.07;;;;;;;;;;12550368;28;20367;-80
2022/05/22 22:09:46;;;;;;;;;;;;;;;;;;12548526;28;20033;-80
2022/05/22 22:15:50;;;;;;;5.00;4.20;;;;;;;;;;12531262;28;19975;-80
2022/05/22 22:21:52;;;;;;;5.10;3.72;;;;;;;;;;12548563;28;20455;-79
2022/05/22 22:27:54;;;;;;;4.43;4.00;;;;;;;;;;12548655;28;20049;-80
2022/05/22 22:33:56;;;;;;;;;;;;;;;;;;12548407;28;20063;-79
2022/05/22 22:39:57;;;;;;;;;;;;;;;;;;12548604;28;19920;-79
2022/05/22 22:45:59;;;;;;;4.97;4.43;;;;;;;;;;12529924;28;19916;-80
2022/05/22 22:52:01;;;;;;;;;;;;;;;;;;12530090;28;20029;-79
2022/05/22 22:58:05;;;;;;;7.83;7.13;;;;;;;;;;12529224;28;19908;-79
2022/05/22 23:04:07;;;;;;;9.13;8.32;;;;;;;;;;12529555;28;20056;-79
2022/05/22 23:10:09;;;;;;;10.48;9.32;;;;;;;;;;12546536;28;20044;-79
2022/05/22 23:16:11;;;;;;;10.98;9.98;;;;;;;;;;12546244;28;20040;-79
2022/05/22 23:22:12;;;;;;;8.70;7.97;;;;;;;;;;12545788;28;20052;-79
2022/05/22 23:28:14;;;;;;;5.53;5.03;;;;;;;;;;12527869;28;20036;-79
2022/05/22 23:34:16;;;;;;;8.23;6.90;;;;;;;;;;12527561;28;20049;-79
2022/05/22 23:40:20;;;;;;;8.07;7.28;;;;;;;;;;12527493;28;20048;-79
2022/05/22 23:46:23;;;;;;;7.45;6.82;;;;;;;;;;12544799;28;20032;-79
2022/05/22 23:52:25;;;;;;;5.55;5.05;;;;;;;;;;12526680;28;20040;-79
2022/05/22 23:58:27;;;;;;;6.88;6.28;;;;;;;;;;12544464;28;20040;-79
